Terminal Aerodrome Forecast
Issued by NWS

Current Version | Previous Version | Text Only | Print | Product List | Glossary On
Versions: 1 2 3 4 5 6 7 8 9 10 11 12 13 14
000
FTUS42 TJSJ 020552
TAFJBQ
TAF
TJBQ 020552Z 0206/0306 11005KT P6SM SKC
     FM021330 08013KT P6SM FEW030 BKN050
     FM021700 08015KT P6SM -RA VCTS BKN030CB BKN080
     FM022330 11005KT P6SM SCT060
      AMD NOT SKED TIL 021100=

USA.gov is the U.S. government's official web portal to all federal, state and local government web resources and services.